Time;durP1;ratioP1;P1;durP2;ratioP2;P2;SDS_P1;SDS_P2;PMS_P1;PMS_P2;Temp;Humidity;BMP_temperature;BMP_pressure;BME280_temperature;BME280_humidity;BME280_pressure;Samples;Min_cycle;Max_cycle;Signal;HPM_P1;HPM_P2
2022/08/26 00:00:02;;;;;;;35.67;15.93;;;;;19.60;96168.00;;;;8398048;28;20224;-74
2022/08/26 00:04:39;;;;;;;31.80;16.85;;;;;19.60;96164.00;;;;8399052;28;20657;-74
2022/08/26 00:08:44;;;;;;;34.35;16.35;;;;;19.50;96171.00;;;;8398169;28;20231;-73
2022/08/26 00:12:48;;;;;;;36.00;16.33;;;;;19.50;96169.00;;;;8398863;28;20228;-73
2022/08/26 00:17:26;;;;;;;34.22;17.95;;;;;19.50;96175.00;;;;8398095;28;20594;-73
2022/08/26 00:21:30;;;;;;;42.35;17.48;;;;;19.50;96175.00;;;;8397803;28;20254;-73
2022/08/26 00:26:04;;;;;;;36.78;17.90;;;;;19.50;96172.00;;;;8397563;28;20616;-73
2022/08/26 00:30:14;;;;;;;38.78;17.63;;;;;19.40;96162.00;;;;8397617;28;20661;-73
2022/08/26 00:34:24;;;;;;;35.90;17.30;;;;;19.30;96157.00;;;;8397422;28;20228;-74
2022/08/26 00:38:27;;;;;;;40.65;16.10;;;;;19.30;96157.00;;;;8397007;28;20238;-73
2022/08/26 00:42:31;;;;;;;39.05;16.70;;;;;19.30;96157.00;;;;8397593;28;20223;-74
2022/08/26 00:46:41;;;;;;;31.63;16.33;;;;;19.20;96158.00;;;;8396110;28;20219;-73
2022/08/26 00:50:52;;;;;;;35.90;15.48;;;;;19.20;96157.00;;;;8397297;28;20216;-73
2022/08/26 00:55:01;;;;;;;34.15;16.83;;;;;19.20;96150.00;;;;8397213;28;20713;-74
2022/08/26 00:59:10;;;;;;;39.33;19.55;;;;;19.20;96156.00;;;;8396299;28;20223;-73
2022/08/26 01:03:17;;;;;;;33.83;16.02;;;;;19.20;96158.00;;;;8396453;28;20220;-72
2022/08/26 01:07:47;;;;;;;33.63;18.10;;;;;19.10;96158.00;;;;8396378;28;20230;-74
2022/08/26 01:11:55;;;;;;;33.78;17.58;;;;;19.10;96155.00;;;;8395541;28;20625;-74
2022/08/26 01:16:02;;;;;;;37.25;18.95;;;;;19.00;96143.00;;;;8396614;28;20306;-75
2022/08/26 01:20:17;;;;;;;38.75;18.20;;;;;18.90;96139.00;;;;8396135;28;20560;-75
2022/08/26 01:24:43;;;;;;;37.28;19.08;;;;;18.90;96147.00;;;;8395771;28;20697;-75
2022/08/26 01:28:49;;;;;;;50.22;20.92;;;;;19.00;96144.00;;;;8394855;28;20215;-75
2022/08/26 01:32:56;;;;;;;35.63;17.83;;;;;19.00;96144.00;;;;8396226;28;20252;-75
2022/08/26 01:37:02;;;;;;;34.47;17.42;;;;;19.00;96151.00;;;;8395636;28;20226;-73
2022/08/26 01:41:35;;;;;;;33.67;17.58;;;;;19.00;96145.00;;;;8393606;28;20224;-73
2022/08/26 01:45:41;;;;;;;38.83;16.10;;;;;19.00;96144.00;;;;8395494;28;20510;-72
2022/08/26 01:49:48;;;;;;;30.13;15.75;;;;;19.00;96156.00;;;;8394998;28;20250;-72
2022/08/26 01:54:20;;;;;;;35.53;16.50;;;;;18.90;96151.00;;;;8394724;28;20561;-71
2022/08/26 01:58:32;;;;;;;43.65;18.90;;;;;18.90;96149.00;;;;8394544;28;20526;-74
2022/08/26 02:02:37;;;;;;;33.75;17.02;;;;;18.90;96158.00;;;;8394139;28;20673;-73
2022/08/26 02:07:12;;;;;;;39.75;16.85;;;;;18.80;96159.00;;;;8394200;28;20230;-74
2022/08/26 02:11:16;;;;;;;30.52;17.02;;;;;18.80;96155.00;;;;8394978;28;20226;-74
2022/08/26 02:15:20;;;;;;;32.15;16.30;;;;;18.80;96154.00;;;;8394853;28;20215;-74
2022/08/26 02:19:59;;;;;;;40.92;16.58;;;;;18.70;96161.00;;;;8393644;28;20306;-74
2022/08/26 02:24:10;;;;;;;32.20;16.67;;;;;18.70;96155.00;;;;8394891;28;20216;-74
2022/08/26 02:28:42;;;;;;;61.85;16.88;;;;;18.70;96146.00;;;;8393771;28;20601;-74
2022/08/26 02:32:46;;;;;;;34.40;17.50;;;;;18.70;96152.00;;;;8394207;28;20220;-74
2022/08/26 02:36:53;;;;;;;40.33;15.90;;;;;18.70;96142.00;;;;8394134;28;20324;-73
2022/08/26 02:41:27;;;;;;;37.45;18.33;;;;;18.70;96137.00;;;;8394340;28;20661;-73
2022/08/26 02:46:04;;;;;;;38.40;16.25;;;;;18.70;96138.00;;;;8393285;28;20354;-73
2022/08/26 02:50:42;;;;;;;32.40;16.77;;;;;18.70;96138.00;;;;8381313;28;20212;-72
2022/08/26 02:55:17;;;;;;;34.78;18.02;;;;;18.60;96142.00;;;;8394321;28;20230;-73
2022/08/26 02:59:51;;;;;;;32.42;17.15;;;;;18.60;96143.00;;;;8392976;28;20222;-74
2022/08/26 03:04:29;;;;;;;32.30;16.15;;;;;18.50;96142.00;;;;8396804;28;20660;-71
2022/08/26 03:08:35;;;;;;;43.08;18.63;;;;;18.40;96136.00;;;;8400729;28;20243;-72
2022/08/26 03:13:13;;;;;;;34.55;17.70;;;;;18.40;96134.00;;;;8399367;28;20273;-71
2022/08/26 03:17:51;;;;;;;37.60;18.63;;;;;18.40;96137.00;;;;8400174;28;20258;-72
2022/08/26 03:22:27;;;;;;;35.28;17.52;;;;;18.40;96132.00;;;;8399652;28;20652;-71
2022/08/26 03:27:04;;;;;;;33.83;17.08;;;;;18.30;96131.00;;;;8399987;28;20222;-72
2022/08/26 03:31:42;;;;;;;35.83;15.85;;;;;18.40;96129.00;;;;8397555;28;20219;-68
2022/08/26 03:36:19;;;;;;;35.30;16.63;;;;;18.40;96133.00;;;;8397669;28;20638;-68
2022/08/26 03:40:56;;;;;;;27.48;15.90;;;;;18.30;96130.00;;;;8396537;28;20390;-68
2022/08/26 03:44:59;;;;;;;24.90;15.15;;;;;18.40;96123.00;;;;8398666;28;20308;-72
2022/08/26 03:49:37;;;;;;;38.47;17.13;;;;;18.30;96114.00;;;;8398274;28;20215;-72
2022/08/26 03:54:12;;;;;;;40.00;17.90;;;;;18.30;96112.00;;;;8384336;28;20569;-71
2022/08/26 03:58:48;;;;;;;35.67;16.65;;;;;18.30;96117.00;;;;8398843;28;20294;-72
2022/08/26 04:08:04;;;;;;;35.17;17.45;;;;;18.30;96114.00;;;;8392545;28;20247;-72
2022/08/26 04:12:39;;;;;;;35.38;17.88;;;;;18.30;96116.00;;;;8398007;28;20231;-73
2022/08/26 04:17:15;;;;;;;39.53;18.70;;;;;18.30;96114.00;;;;8397623;28;20314;-73
2022/08/26 04:21:53;;;;;;;37.63;18.48;;;;;18.40;96108.00;;;;8394486;28;20561;-71
2022/08/26 04:25:58;;;;;;;35.25;17.33;;;;;18.40;96110.00;;;;8397069;28;20258;-75
2022/08/26 04:30:32;;;;;;;31.50;16.42;;;;;18.50;96117.00;;;;8397599;28;20220;-74
2022/08/26 04:34:36;;;;;;;36.78;16.25;;;;;18.50;96116.00;;;;8396766;28;20296;-74
2022/08/26 04:38:43;;;;;;;41.13;16.95;;;;;18.50;96117.00;;;;8396589;28;20223;-74
2022/08/26 04:42:48;;;;;;;34.13;16.95;;;;;18.60;96121.00;;;;8396821;28;20307;-74
2022/08/26 04:47:22;;;;;;;42.78;17.45;;;;;18.70;96118.00;;;;8396848;28;20269;-74
2022/08/26 04:51:27;;;;;;;28.83;16.20;;;;;18.70;96126.00;;;;8397403;28;20538;-75
2022/08/26 04:55:31;;;;;;;31.88;16.15;;;;;18.70;96132.00;;;;8397192;28;20224;-75
2022/08/26 04:59:48;;;;;;;42.58;17.75;;;;;18.80;96127.00;;;;8397149;28;20543;-75
2022/08/26 05:03:51;;;;;;;34.55;16.35;;;;;18.90;96133.00;;;;8396282;28;20542;-75
2022/08/26 05:08:28;;;;;;;28.45;15.70;;;;;19.00;96126.00;;;;8397047;28;20518;-75
2022/08/26 05:12:32;;;;;;;29.73;15.98;;;;;19.10;96133.00;;;;8396795;28;20238;-75
2022/08/26 05:16:37;;;;;;;33.40;16.48;;;;;19.10;96138.00;;;;8397259;28;20222;-76
2022/08/26 05:21:17;;;;;;;28.95;15.85;;;;;19.20;96146.00;;;;8395012;28;20216;-74
2022/08/26 05:25:20;;;;;;;25.27;16.13;;;;;19.40;96142.00;;;;8395035;28;20307;-75
2022/08/26 05:29:23;;;;;;;28.10;15.23;;;;;19.40;96140.00;;;;8395535;28;20264;-75
2022/08/26 05:33:28;;;;;;;30.67;15.60;;;;;19.50;96142.00;;;;8396434;28;20615;-76
2022/08/26 05:38:07;;;;;;;31.98;17.48;;;;;19.70;96140.00;;;;8396152;28;20299;-75
2022/08/26 05:42:14;;;;;;;28.75;15.70;;;;;19.80;96145.00;;;;8395293;28;20219;-75
2022/08/26 05:46:18;;;;;;;31.67;16.38;;;;;19.90;96145.00;;;;8395651;28;20285;-75
2022/08/26 05:50:57;;;;;;;24.23;14.85;;;;;20.10;96140.00;;;;8395067;28;20220;-75
2022/08/26 05:55:01;;;;;;;29.42;16.27;;;;;20.20;96141.00;;;;8395169;28;20311;-75
2022/08/26 05:59:04;;;;;;;27.10;16.30;;;;;20.20;96141.00;;;;8394863;28;20234;-76
2022/08/26 06:03:12;;;;;;;27.90;17.45;;;;;20.40;96137.00;;;;8395029;28;20223;-75
2022/08/26 06:12:11;;;;;;;25.83;15.90;;;;;20.70;96136.00;;;;8394877;28;20216;-76
2022/08/26 06:16:18;;;;;;;33.97;16.33;;;;;20.80;96134.00;;;;8394171;28;20223;-74
2022/08/26 06:20:53;;;;;;;37.60;16.45;;;;;21.00;96138.00;;;;8395134;28;20224;-75
2022/08/26 06:30:17;;;;;;;35.28;17.83;;;;;21.50;96137.00;;;;8379178;28;20216;-76
2022/08/26 06:34:21;;;;;;;32.78;15.70;;;;;21.60;96136.00;;;;8386661;28;20216;-77
2022/08/26 06:38:24;;;;;;;37.75;16.38;;;;;21.90;96137.00;;;;8394095;28;20290;-77
2022/08/26 06:42:29;;;;;;;34.88;16.50;;;;;21.90;96141.00;;;;8393470;28;20220;-76
2022/08/26 06:46:47;;;;;;;25.52;16.15;;;;;22.10;96146.00;;;;8394548;28;20220;-77
2022/08/26 06:51:02;;;;;;;24.75;16.00;;;;;22.50;96145.00;;;;8386594;28;20243;-77
2022/08/26 06:55:06;;;;;;;28.73;16.10;;;;;22.90;96140.00;;;;8394337;28;20223;-77
2022/08/26 06:59:11;;;;;;;30.05;15.45;;;;;23.40;96143.00;;;;8393557;28;20226;-75
2022/08/26 07:03:15;;;;;;;32.35;14.88;;;;;23.90;96149.00;;;;8394599;28;20302;-75
2022/08/26 07:07:20;;;;;;;33.67;16.33;;;;;24.40;96151.00;;;;8393031;28;20653;-75
2022/08/26 07:11:24;;;;;;;29.20;14.68;;;;;24.90;96150.00;;;;8393852;28;20306;-74
2022/08/26 07:15:29;;;;;;;27.95;14.02;;;;;25.40;96148.00;;;;8393429;28;20223;-75
2022/08/26 07:19:33;;;;;;;32.38;14.02;;;;;25.90;96153.00;;;;8393998;28;20273;-75
2022/08/26 07:23:37;;;;;;;30.20;13.93;;;;;26.50;96155.00;;;;8393186;28;20223;-76
2022/08/26 07:27:42;;;;;;;33.08;12.88;;;;;27.20;96154.00;;;;8393136;28;20220;-76
2022/08/26 07:32:20;;;;;;;25.20;12.68;;;;;27.60;96161.00;;;;8393839;28;20306;-76
2022/08/26 07:36:26;;;;;;;22.10;11.60;;;;;27.70;96172.00;;;;8393706;28;20235;-76
2022/08/26 07:40:30;;;;;;;23.67;11.02;;;;;27.90;96171.00;;;;8393266;28;20238;-77
2022/08/26 07:44:33;;;;;;;20.23;9.93;;;;;28.20;96166.00;;;;8392748;28;20226;-77
2022/08/26 07:48:38;;;;;;;24.23;10.38;;;;;28.40;96175.00;;;;8395283;28;20224;-77
2022/08/26 07:52:48;;;;;;;23.10;10.27;;;;;28.70;96172.00;;;;8398947;28;20254;-78
2022/08/26 07:57:22;;;;;;;19.92;9.93;;;;;28.80;96165.00;;;;8398791;28;20676;-77
2022/08/26 08:01:28;;;;;;;12.32;8.95;;;;;29.20;96166.00;;;;8398706;28;20216;-77
2022/08/26 08:05:35;;;;;;;21.40;9.68;;;;;29.40;96154.00;;;;8399455;28;20226;-78
2022/08/26 08:09:43;;;;;;;20.45;9.20;;;;;29.60;96166.00;;;;8398517;28;20317;-77
2022/08/26 08:13:46;;;;;;;18.67;9.88;;;;;30.10;96160.00;;;;8399010;28;20298;-78
2022/08/26 08:17:50;;;;;;;19.42;8.93;;;;;30.90;96160.00;;;;8398569;28;20223;-78
2022/08/26 08:22:29;;;;;;;21.42;10.35;;;;;32.10;96160.00;;;;8398643;28;20212;-78
2022/08/26 08:26:34;;;;;;;16.88;8.63;;;;;32.80;96159.00;;;;8397794;28;20583;-79
2022/08/26 08:30:39;;;;;;;15.55;9.35;;;;;33.00;96154.00;;;;8398348;28;20307;-78
2022/08/26 08:39:42;;;;;;;16.02;8.07;;;;;33.90;96153.00;;;;8397943;28;20216;-78
2022/08/26 08:43:46;;;;;;;13.77;8.85;;;;;34.70;96149.00;;;;8396678;28;20669;-79
2022/08/26 08:48:24;;;;;;;14.07;8.13;;;;;35.20;96141.00;;;;8397544;28;20311;-78
2022/08/26 08:52:34;;;;;;;15.48;7.93;;;;;35.30;96138.00;;;;8396625;28;20219;-78
2022/08/26 08:56:42;;;;;;;16.30;8.02;;;;;34.90;96141.00;;;;8398037;28;20220;-78
2022/08/26 09:00:51;;;;;;;15.95;8.13;;;;;34.60;96139.00;;;;8397241;28;20226;-78
2022/08/26 09:05:23;;;;;;;20.42;8.40;;;;;34.30;96138.00;;;;8384321;28;20565;-78
2022/08/26 09:09:33;;;;;;;18.00;8.15;;;;;34.70;96133.00;;;;8396019;28;20223;-77
2022/08/26 09:13:39;;;;;;;20.70;8.48;;;;;35.40;96133.00;;;;8397143;28;20630;-78
2022/08/26 09:17:52;;;;;;;21.67;7.97;;;;;35.90;96133.00;;;;8396166;28;20657;-78
2022/08/26 09:22:29;;;;;;;16.17;7.40;;;;;35.90;96128.00;;;;8396344;28;20646;-78
2022/08/26 09:26:44;;;;;;;17.67;7.55;;;;;34.70;96127.00;;;;8395884;28;20230;-78
2022/08/26 09:31:02;;;;;;;12.82;7.55;;;;;33.20;96131.00;;;;8396695;28;20303;-78
2022/08/26 09:35:26;;;;;;;25.30;7.40;;;;;32.90;96125.00;;;;8395943;28;20211;-78
2022/08/26 09:39:35;;;;;;;19.27;7.30;;;;;34.00;96119.00;;;;8396337;28;20240;-78
2022/08/26 09:43:40;;;;;;;15.80;7.57;;;;;33.70;96120.00;;;;8395495;28;20311;-78
2022/08/26 09:48:00;;;;;;;25.30;7.97;;;;;33.00;96115.00;;;;8396217;28;20307;-77
2022/08/26 09:52:22;;;;;;;21.95;7.93;;;;;32.90;96100.00;;;;8395364;28;20216;-78
2022/08/26 09:56:30;;;;;;;18.10;7.30;;;;;33.30;96100.00;;;;8395290;28;20219;-77
2022/08/26 10:00:36;;;;;;;17.05;7.57;;;;;33.60;96094.00;;;;8395301;28;20247;-77
2022/08/26 10:04:50;;;;;;;15.32;7.22;;;;;34.60;96092.00;;;;8395100;28;20228;-78
2022/08/26 10:13:58;;;;;;;16.85;7.43;;;;;33.20;96082.00;;;;8389696;28;20227;-77
2022/08/26 10:18:08;;;;;;;14.40;7.75;;;;;32.40;96077.00;;;;8393794;28;20216;-77
2022/08/26 10:22:17;;;;;;;15.95;8.23;;;;;31.80;96075.00;;;;8394796;28;20215;-77
2022/08/26 10:26:25;;;;;;;25.38;9.35;;;;;31.40;96060.00;;;;8394012;28;20222;-77
2022/08/26 10:30:34;;;;;;;18.10;8.55;;;;;31.10;96063.00;;;;8382130;28;20251;-77
2022/08/26 10:35:07;;;;;;;20.33;10.15;;;;;30.60;96066.00;;;;8394404;28;20250;-76
2022/08/26 10:39:18;;;;;;;33.75;12.50;;;;;28.60;96082.00;;;;8394419;28;20299;-70
2022/08/26 10:43:25;;;;;;;25.08;8.55;;;;;25.90;96076.00;;;;8393428;28;20240;-75
2022/08/26 10:47:34;;;;;;;22.98;8.90;;;;;23.90;96071.00;;;;8393745;28;20318;-74
2022/08/26 10:51:42;;;;;;;32.85;11.82;;;;;23.10;96068.00;;;;8393474;28;20219;-71
2022/08/26 10:56:17;;;;;;;32.17;11.18;;;;;23.00;96085.00;;;;8394665;28;20654;-68
2022/08/26 11:04:54;;;;;;;26.90;11.48;;;;;22.70;96072.00;;;;8393823;28;20222;-66
2022/08/26 11:09:35;;;;;;;27.13;12.40;;;;;22.50;96052.00;;;;8392961;28;20315;-75
2022/08/26 11:14:05;;;;;;;43.03;11.45;;;;;22.20;96073.00;;;;8393974;28;20216;-72
2022/08/26 11:18:11;;;;;;;31.20;10.55;;;;;21.90;96067.00;;;;8393593;28;20212;-71
2022/08/26 11:22:45;;;;;;;28.77;11.93;;;;;21.90;96061.00;;;;8393485;28;20216;-82
2022/08/26 11:26:50;;;;;;;28.05;10.88;;;;;21.90;96057.00;;;;8399925;28;20303;-74
2022/08/26 11:31:26;;;;;;;34.95;12.52;;;;;22.00;96046.00;;;;8400128;28;20228;-68
2022/08/26 11:35:51;;;;;;;29.27;13.15;;;;;22.20;96048.00;;;;8398344;28;20216;-74
2022/08/26 11:39:55;;;;;;;32.95;12.98;;;;;22.30;96058.00;;;;8395352;28;20223;-74
2022/08/26 11:49:14;;;;;;;24.92;12.88;;;;;22.30;96035.00;;;;8399113;28;20608;-71
2022/08/26 11:53:19;;;;;;;25.92;12.93;;;;;22.40;96011.00;;;;8398762;28;20306;-69
2022/08/26 11:57:24;;;;;;;39.15;13.43;;;;;22.60;96015.00;;;;8398645;28;20219;-70
2022/08/26 12:01:31;;;;;;;36.25;14.02;;;;;22.80;96021.00;;;;8398926;28;20252;-68
2022/08/26 12:05:38;;;;;;;33.10;14.68;;;;;23.00;96034.00;;;;8398704;28;20211;-67
2022/08/26 12:09:55;;;;;;;25.95;12.80;;;;;23.00;96046.00;;;;8398877;28;20227;-66
2022/08/26 12:14:20;;;;;;;35.88;14.10;;;;;23.20;96050.00;;;;8398434;28;20310;-65
2022/08/26 12:18:26;;;;;;;24.05;12.45;;;;;23.30;96042.00;;;;8397685;28;20250;-66
2022/08/26 12:22:37;;;;;;;30.23;11.27;;;;;23.20;96031.00;;;;8398213;28;20212;-67
2022/08/26 12:27:14;;;;;;;26.95;11.80;;;;;23.30;96024.00;;;;8398316;28;20708;-66
2022/08/26 12:31:28;;;;;;;28.10;12.70;;;;;23.30;96024.00;;;;8398436;28;20621;-68
2022/08/26 12:35:33;;;;;;;29.60;12.30;;;;;23.10;96013.00;;;;8397026;28;20546;-68
2022/08/26 12:39:39;;;;;;;30.23;13.50;;;;;23.10;96009.00;;;;8398110;28;20250;-68
2022/08/26 12:44:26;;;;;;;35.15;12.90;;;;;23.00;96013.00;;;;8396221;28;20224;-69
2022/08/26 12:48:33;;;;;;;23.60;11.88;;;;;22.80;96024.00;;;;8396972;28;20238;-69
2022/08/26 12:53:05;;;;;;;36.78;13.88;;;;;22.40;96023.00;;;;8383936;28;20216;-69
2022/08/26 12:57:10;;;;;;;22.98;11.88;;;;;22.30;96025.00;;;;8397231;28;20266;-69
2022/08/26 13:01:22;;;;;;;30.25;12.48;;;;;22.20;96024.00;;;;8396542;28;20734;-69
2022/08/26 13:05:31;;;;;;;28.80;12.15;;;;;22.10;96018.00;;;;8396317;28;20649;-68
2022/08/26 13:09:37;;;;;;;23.83;11.95;;;;;22.10;96018.00;;;;8396381;28;20306;-67
2022/08/26 13:13:40;;;;;;;32.65;13.52;;;;;22.00;96010.00;;;;8396127;28;20251;-67
2022/08/26 13:17:43;;;;;;;24.38;11.18;;;;;21.90;96012.00;;;;8396752;28;20315;-67
2022/08/26 13:21:51;;;;;;;25.40;11.93;;;;;21.80;96009.00;;;;8396418;28;20310;-67
2022/08/26 13:26:22;;;;;;;32.85;11.60;;;;;21.80;96012.00;;;;8396264;28;20290;-67
2022/08/26 13:30:25;;;;;;;24.25;12.27;;;;;21.60;96022.00;;;;8395203;28;20688;-68
2022/08/26 13:34:30;;;;;;;18.70;11.43;;;;;21.40;96022.00;;;;8392671;28;20222;-69
2022/08/26 13:38:35;;;;;;;28.45;11.18;;;;;21.30;96011.00;;;;8395575;28;20677;-71
2022/08/26 13:42:38;;;;;;;33.95;12.65;;;;;21.30;96013.00;;;;8394397;28;20216;-70
2022/08/26 13:46:52;;;;;;;22.83;11.02;;;;;21.30;96009.00;;;;8394305;28;20236;-71
2022/08/26 13:51:27;;;;;;;27.38;12.93;;;;;21.40;96014.00;;;;8395003;28;20553;-70
2022/08/26 13:55:34;;;;;;;30.92;12.18;;;;;21.50;96010.00;;;;8395370;28;20239;-70
2022/08/26 13:59:37;;;;;;;24.85;12.20;;;;;21.50;96017.00;;;;8394388;28;20212;-71
2022/08/26 14:03:42;;;;;;;27.67;12.55;;;;;21.50;96016.00;;;;8394557;28;20684;-70
2022/08/26 14:08:19;;;;;;;33.22;13.73;;;;;21.60;96015.00;;;;8395294;28;20269;-70
2022/08/26 14:12:24;;;;;;;29.40;13.13;;;;;21.80;96010.00;;;;8394524;28;20295;-71
2022/08/26 14:16:58;;;;;;;29.70;13.70;;;;;22.00;95998.00;;;;8394487;28;20226;-71
2022/08/26 14:21:35;;;;;;;22.65;11.88;;;;;22.10;95996.00;;;;8393676;28;20223;-71
2022/08/26 14:25:38;;;;;;;26.20;11.93;;;;;22.20;96006.00;;;;8393537;28;20255;-72
2022/08/26 14:29:42;;;;;;;25.40;12.25;;;;;22.30;96008.00;;;;8393348;28;20228;-71
2022/08/26 14:34:16;;;;;;;25.92;12.20;;;;;22.50;96009.00;;;;8392769;28;20227;-71
2022/08/26 14:38:20;;;;;;;24.58;11.18;;;;;22.60;96015.00;;;;8393163;28;20650;-69
2022/08/26 14:42:57;;;;;;;24.65;12.75;;;;;22.40;96004.00;;;;8394326;28;20259;-70
2022/08/26 14:52:18;;;;;;;20.42;11.82;;;;;22.60;96014.00;;;;8393281;28;20246;-69
2022/08/26 14:56:21;;;;;;;18.83;11.07;;;;;22.70;96006.00;;;;8393601;28;20223;-69
2022/08/26 15:00:55;;;;;;;27.58;12.35;;;;;23.00;95986.00;;;;8400137;28;20576;-70
2022/08/26 15:05:32;;;;;;;24.60;12.52;;;;;22.80;95979.00;;;;8399231;28;20258;-70
2022/08/26 15:09:37;;;;;;;24.85;12.73;;;;;22.80;95984.00;;;;8399933;28;20310;-70
2022/08/26 15:14:12;;;;;;;19.02;12.40;;;;;23.00;95980.00;;;;8399612;28;20576;-70
2022/08/26 15:18:23;;;;;;;29.65;12.82;;;;;23.40;95966.00;;;;8400285;28;20212;-68
2022/08/26 15:22:26;;;;;;;24.15;12.88;;;;;23.60;95950.00;;;;8399176;28;20661;-68
2022/08/26 15:31:32;;;;;;;18.77;11.40;;;;;24.30;95938.00;;;;8366061;28;20220;-72
2022/08/26 15:36:06;;;;;;;20.02;11.13;;;;;24.60;95929.00;;;;8366756;28;20231;-70
2022/08/26 15:40:10;;;;;;;18.48;10.27;;;;;24.90;95920.00;;;;8393059;28;20220;-68
2022/08/26 15:44:18;;;;;;;27.02;10.93;;;;;25.10;95922.00;;;;8398491;28;20299;-67
2022/08/26 15:48:23;;;;;;;21.85;10.15;;;;;25.30;95916.00;;;;8385545;28;20219;-68
2022/08/26 15:52:26;;;;;;;22.20;10.77;;;;;25.40;95930.00;;;;8399256;28;20223;-68
2022/08/26 15:56:33;;;;;;;19.45;9.68;;;;;25.50;95930.00;;;;8398221;28;20319;-68
2022/08/26 16:00:36;;;;;;;20.35;10.88;;;;;25.50;95929.00;;;;8398825;28;20212;-68
2022/08/26 16:04:41;;;;;;;20.00;10.90;;;;;25.30;95938.00;;;;8398069;28;20219;-68
2022/08/26 16:08:46;;;;;;;25.63;10.88;;;;;25.00;95925.00;;;;8397409;28;20235;-69
2022/08/26 16:12:49;;;;;;;24.77;10.63;;;;;24.70;95929.00;;;;8398799;28;20231;-69
2022/08/26 16:16:53;;;;;;;18.10;10.52;;;;;24.50;95934.00;;;;8398408;28;20231;-69
2022/08/26 16:21:29;;;;;;;22.00;10.73;;;;;24.40;95917.00;;;;8397908;28;20223;-69
2022/08/26 16:25:32;;;;;;;18.48;11.00;;;;;24.40;95902.00;;;;8397745;28;20307;-69
2022/08/26 16:29:38;;;;;;;20.00;11.45;;;;;24.30;95901.00;;;;8398523;28;20220;-69
2022/08/26 16:33:41;;;;;;;25.90;11.90;;;;;24.30;95898.00;;;;8397736;28;20296;-69
2022/08/26 16:37:46;;;;;;;16.75;10.77;;;;;24.30;95900.00;;;;8398548;28;20315;-70
2022/08/26 16:41:49;;;;;;;21.77;11.25;;;;;24.40;95898.00;;;;8397872;28;20224;-69
2022/08/26 16:45:52;;;;;;;21.10;10.82;;;;;24.50;95906.00;;;;8397175;28;20227;-70
2022/08/26 16:50:27;;;;;;;24.67;11.30;;;;;24.50;95912.00;;;;8396971;28;20246;-70
2022/08/26 16:54:31;;;;;;;17.35;10.85;;;;;24.30;95914.00;;;;8397761;28;20215;-70
2022/08/26 16:58:34;;;;;;;16.02;11.20;;;;;24.20;95916.00;;;;8397047;28;20223;-70
2022/08/26 17:03:11;;;;;;;22.83;11.38;;;;;24.20;95913.00;;;;8397432;28;20303;-70
2022/08/26 17:07:14;;;;;;;17.38;10.75;;;;;24.20;95918.00;;;;8380172;28;20227;-69
2022/08/26 17:11:19;;;;;;;21.77;11.85;;;;;24.20;95901.00;;;;8397116;28;20245;-69
2022/08/26 17:15:53;;;;;;;28.80;12.57;;;;;24.10;95914.00;;;;8395850;28;20569;-70
2022/08/26 17:20:07;;;;;;;22.40;12.00;;;;;23.90;95922.00;;;;8381656;28;20285;-70
2022/08/26 17:24:10;;;;;;;23.95;13.52;;;;;23.60;95932.00;;;;8396007;28;20243;-71
2022/08/26 17:28:15;;;;;;;21.25;13.43;;;;;23.50;95915.00;;;;8395910;28;20216;-68
2022/08/26 17:32:49;;;;;;;24.13;13.77;;;;;23.30;95911.00;;;;8395997;28;20303;-69
2022/08/26 17:36:53;;;;;;;24.85;13.98;;;;;23.10;95922.00;;;;8380602;28;20226;-69
2022/08/26 17:40:56;;;;;;;28.00;13.63;;;;;23.00;95908.00;;;;8395502;28;20322;-70
2022/08/26 17:45:31;;;;;;;28.95;13.80;;;;;22.90;95919.00;;;;8395231;28;20307;-70
2022/08/26 17:49:35;;;;;;;29.08;13.57;;;;;22.90;95919.00;;;;8394795;28;20229;-70
2022/08/26 17:53:39;;;;;;;26.05;14.38;;;;;22.90;95925.00;;;;8395528;28;20311;-70
2022/08/26 17:58:13;;;;;;;27.13;14.27;;;;;22.80;95932.00;;;;8395497;28;20307;-70
2022/08/26 18:02:19;;;;;;;29.98;13.43;;;;;22.80;95941.00;;;;8387547;28;20224;-70
2022/08/26 18:06:24;;;;;;;30.20;14.75;;;;;22.80;95952.00;;;;8395037;28;20211;-69
2022/08/26 18:10:58;;;;;;;33.83;15.05;;;;;22.70;95957.00;;;;8394292;28;20224;-70
2022/08/26 18:15:02;;;;;;;26.52;14.15;;;;;22.60;95961.00;;;;8394635;28;20219;-70
2022/08/26 18:19:05;;;;;;;26.13;15.20;;;;;22.60;95964.00;;;;8394891;28;20726;-70
2022/08/26 18:23:44;;;;;;;28.52;15.65;;;;;22.50;95965.00;;;;8395020;28;20243;-70
2022/08/26 18:27:47;;;;;;;30.27;17.17;;;;;22.50;95985.00;;;;8389544;28;20747;-69
2022/08/26 18:31:51;;;;;;;28.58;16.90;;;;;22.50;95996.00;;;;8377729;28;20228;-70
2022/08/26 18:35:54;;;;;;;29.88;16.52;;;;;22.40;96003.00;;;;8395012;28;20232;-70
2022/08/26 18:39:59;;;;;;;33.05;15.73;;;;;22.40;96001.00;;;;8393902;28;20669;-73
2022/08/26 18:44:04;;;;;;;27.65;13.27;;;;;22.30;96006.00;;;;8394356;28;20684;-72
2022/08/26 18:48:09;;;;;;;19.33;11.75;;;;;22.20;96018.00;;;;8394459;28;20254;-71
2022/08/26 18:52:13;;;;;;;21.92;12.77;;;;;22.00;96029.00;;;;8394766;28;20216;-71
2022/08/26 18:56:18;;;;;;;28.42;13.95;;;;;21.90;96038.00;;;;8393745;28;20219;-72
2022/08/26 19:00:55;;;;;;;35.80;15.43;;;;;21.80;96041.00;;;;8393052;28;20303;-71
2022/08/26 19:04:59;;;;;;;27.90;14.73;;;;;21.70;96048.00;;;;8394166;28;20251;-72
2022/08/26 19:09:36;;;;;;;30.88;14.48;;;;;21.70;96045.00;;;;8393576;28;20228;-72
2022/08/26 19:14:15;;;;;;;20.92;12.60;;;;;21.60;96049.00;;;;8392959;28;20246;-72
2022/08/26 19:18:51;;;;;;;20.00;11.82;;;;;21.50;96050.00;;;;8393781;28;20215;-70
2022/08/26 19:23:24;;;;;;;18.10;10.35;;;;;21.40;96043.00;;;;8394072;28;20226;-71
2022/08/26 19:27:34;;;;;;;19.60;10.65;;;;;21.40;96041.00;;;;8393610;28;20261;-72
2022/08/26 19:31:38;;;;;;;21.35;11.88;;;;;21.30;96046.00;;;;8393605;28;20224;-71
2022/08/26 19:36:14;;;;;;;20.38;11.30;;;;;21.20;96039.00;;;;8393073;28;20226;-72
2022/08/26 19:40:17;;;;;;;19.05;11.10;;;;;21.10;96030.00;;;;8393534;28;20230;-71
2022/08/26 19:54:01;;;;;;;22.45;11.57;;;;;21.00;96019.00;;;;8398811;28;20667;-68
2022/08/26 19:58:05;;;;;;;22.52;11.90;;;;;21.00;96015.00;;;;8399263;28;20386;-68
2022/08/26 20:02:42;;;;;;;21.33;11.57;;;;;20.90;96020.00;;;;8398885;28;20611;-69
2022/08/26 20:06:46;;;;;;;23.85;11.38;;;;;20.90;96029.00;;;;8398560;28;20302;-68
2022/08/26 20:11:22;;;;;;;24.83;12.15;;;;;20.90;96021.00;;;;8364496;28;20255;-68
2022/08/26 20:15:25;;;;;;;23.42;12.82;;;;;20.90;96013.00;;;;8365407;28;20229;-68
2022/08/26 20:23:51;;;;;;;24.25;12.20;;;;;20.80;96026.00;;;;8365521;28;20230;-68
2022/08/26 20:27:55;;;;;;;15.93;11.70;;;;;20.80;96032.00;;;;8365234;28;20353;-68
2022/08/26 20:32:32;;;;;;;20.05;12.20;;;;;20.80;96040.00;;;;8365320;28;20315;-68
2022/08/26 20:36:39;;;;;;;15.70;11.13;;;;;20.80;96048.00;;;;8365035;28;20307;-68
2022/08/26 20:40:42;;;;;;;18.83;11.50;;;;;20.70;96047.00;;;;8364828;28;20228;-68
2022/08/26 20:44:47;;;;;;;20.45;12.00;;;;;20.70;96055.00;;;;8364323;28;20216;-68
2022/08/26 20:48:57;;;;;;;20.35;10.95;;;;;20.70;96055.00;;;;8364163;28;20709;-68
2022/08/26 20:53:00;;;;;;;23.55;11.50;;;;;20.60;96052.00;;;;8364262;28;20255;-68
2022/08/26 20:57:37;;;;;;;19.45;12.05;;;;;20.60;96052.00;;;;8363750;28;20296;-68
2022/08/26 21:01:42;;;;;;;21.25;11.93;;;;;20.60;96056.00;;;;8362959;28;20320;-68
2022/08/26 21:05:46;;;;;;;19.83;12.25;;;;;20.50;96050.00;;;;8363947;28;20296;-68
2022/08/26 21:10:22;;;;;;;23.33;12.15;;;;;20.50;96048.00;;;;8363565;28;20331;-68
2022/08/26 21:14:25;;;;;;;21.55;11.82;;;;;20.40;96042.00;;;;8363272;28;20219;-68
2022/08/26 21:18:30;;;;;;;29.92;12.52;;;;;20.40;96029.00;;;;8363345;28;20587;-69
2022/08/26 21:23:04;;;;;;;22.88;12.27;;;;;20.40;96029.00;;;;8364019;28;20295;-68
2022/08/26 21:27:07;;;;;;;19.50;9.98;;;;;20.20;96037.00;;;;8363079;28;20295;-69
2022/08/26 21:31:12;;;;;;;17.95;10.23;;;;;20.20;96028.00;;;;8362828;28;20230;-68
2022/08/26 21:35:17;;;;;;;16.27;9.60;;;;;20.20;96032.00;;;;8362739;28;20244;-68
2022/08/26 21:39:20;;;;;;;18.95;11.43;;;;;20.10;96030.00;;;;8363474;28;20224;-68
2022/08/26 21:43:25;;;;;;;16.30;11.07;;;;;20.10;96026.00;;;;8362229;28;20223;-69